Accueil
METAR-TAF:

METAR-TAF

Aéroports :

Aéroport de Nice-Côte d'Azur

Nice, France

latitude: 43-39N, longitude: 007-12E, altitude: 4 m

Observation

Le bulletin a été fait il y a 43 minutes, à 16:00 UTC
Vent 3 kt de sud
Température 23°C
Humidité 73%
Pression 1018 hPa
Visibilité 10 km ou plus
pas de nuages en-dessous de 1500 mètres et pas de cumulonimbus.

METAR: LFMN 281600Z 17003KT CAVOK 23/18 Q1018 NOSIG

Heure: 18:43 (16:43 UTC)

Prévision

Le bulletin a été fait il y a 2 heures et 43 minutes, à 14:00 UTC
Prévision valable du 28 à 15 UTC au 29 à 21 UTC
Vent 5 kt de direction variable
Visibilité 10 km ou plus
pas de nuages en-dessous de 1500 mètres et pas de cumulonimbus.
Evoluant progressivement
du 29 à 09 UTC au 29 à 11 UTC
Vent 12 kt de est
Evoluant progressivement
du 29 à 15 UTC au 29 à 17 UTC
Vent 2 kt de direction variable

TAF: LFMN 281400Z 2815/2921 VRB05KT CAVOK BECMG 2909/2911 09012KT BECMG 2915/2917 VRB02KT

Observations et prévisions météorologiques de plus de 4000 aéroports (messages METAR et TAF).

Les stations disponibles sont représentées par des disques jaunes et rouges sur la carte.

Passer la souris dessus pour voir le nom de la station.

Cliquer dessus pour voir les observations et prévisions météorologiques.

Pour changer de carte: cliquez sur les boutons verts avec une croix noire pour zoomer, sur le bouton vert avec un tiret pour effectuer un zoom arrière, ou sur les flèches vertes pour les cartes adjacentes.


METAR-TAF: